createdAt,value
2022-10-15T00:01:48.800Z,79.94
2022-10-15T00:06:50.202Z,79.51
2022-10-15T00:11:52.189Z,79.75
2022-10-15T00:16:53.524Z,79.42
2022-10-15T00:21:55.015Z,79.50
2022-10-15T00:26:56.389Z,79.60
2022-10-15T00:31:57.717Z,79.54
2022-10-15T00:36:59.111Z,79.43
2022-10-15T00:42:00.496Z,79.69
2022-10-15T00:47:13.260Z,79.62
2022-10-15T00:52:19.507Z,79.92
2022-10-15T00:57:20.986Z,79.65
2022-10-15T01:02:22.584Z,79.42
2022-10-15T01:07:24.564Z,79.59
2022-10-15T01:12:36.858Z,79.62
2022-10-15T01:17:44.712Z,79.33
2022-10-15T01:23:16.795Z,79.08
2022-10-15T01:28:40.098Z,79.25
2022-10-15T01:33:52.524Z,79.07
2022-10-15T01:39:00.408Z,79.09
2022-10-15T01:44:09.922Z,79.27
2022-10-15T01:49:14.235Z,79.26
2022-10-15T01:54:18.482Z,79.24
2022-10-15T01:59:23.768Z,79.09
2022-10-15T02:04:31.117Z,79.26
2022-10-15T02:09:42.706Z,79.19
2022-10-15T02:15:01.593Z,79.19
2022-10-15T02:20:14.250Z,79.05
2022-10-15T02:25:22.281Z,78.98
2022-10-15T02:30:25.166Z,79.00
2022-10-15T02:35:27.903Z,79.31
2022-10-15T02:40:34.175Z,79.35
2022-10-15T02:45:36.359Z,79.89
2022-10-15T02:50:37.787Z,80.39
2022-10-15T02:55:39.217Z,79.58
2022-10-15T03:00:40.628Z,79.66
2022-10-15T03:05:43.266Z,79.23
2022-10-15T03:10:46.290Z,79.39
2022-10-15T03:15:47.678Z,79.50
2022-10-15T03:20:56.150Z,79.34
2022-10-15T03:25:57.492Z,79.29
2022-10-15T03:30:59.770Z,79.20
2022-10-15T03:36:01.193Z,79.47
2022-10-15T03:41:02.618Z,79.42
2022-10-15T03:46:04.958Z,79.63
2022-10-15T03:51:06.323Z,79.78
2022-10-15T03:56:07.848Z,79.50
2022-10-15T04:01:13.593Z,79.64
2022-10-15T04:06:14.937Z,79.29
2022-10-15T04:11:16.278Z,79.20
2022-10-15T04:16:18.110Z,79.43
2022-10-15T04:21:19.568Z,79.54
2022-10-15T04:26:20.894Z,79.44
2022-10-15T04:31:22.218Z,79.59
2022-10-15T04:36:23.566Z,79.73
2022-10-15T04:41:24.981Z,79.96
2022-10-15T04:46:26.419Z,80.03
2022-10-15T04:51:27.793Z,80.21
2022-10-15T04:56:29.264Z,79.90
2022-10-15T05:01:30.600Z,79.99
2022-10-15T05:06:33.001Z,80.17
2022-10-15T05:11:38.042Z,79.82
2022-10-15T05:16:39.662Z,79.83
2022-10-15T05:21:41.045Z,79.61
2022-10-15T05:26:42.444Z,79.26
2022-10-15T05:31:43.961Z,79.53
2022-10-15T05:36:45.346Z,79.47
2022-10-15T05:41:46.755Z,79.69
2022-10-15T05:46:48.187Z,79.65
2022-10-15T05:51:49.694Z,79.54
2022-10-15T05:56:51.065Z,79.57
2022-10-15T06:01:53.037Z,79.88
2022-10-15T06:06:54.563Z,79.76
2022-10-15T06:11:55.897Z,79.81
2022-10-15T06:16:57.249Z,79.81
2022-10-15T06:21:58.575Z,79.77
2022-10-15T06:27:00.193Z,79.53
2022-10-15T06:32:02.007Z,79.88
2022-10-15T06:37:03.841Z,79.78
2022-10-15T06:42:05.183Z,79.52
2022-10-15T06:47:06.535Z,80.03
2022-10-15T06:52:07.876Z,79.86
2022-10-15T06:57:09.287Z,79.96
2022-10-15T07:02:11.129Z,79.91
2022-10-15T07:07:12.903Z,80.15
2022-10-15T07:12:14.457Z,79.70
2022-10-15T07:17:16.760Z,80.22
2022-10-15T07:22:18.252Z,80.29
2022-10-15T07:27:20.459Z,80.14
2022-10-15T07:32:22.065Z,80.30
2022-10-15T07:37:23.658Z,79.65
2022-10-15T07:42:25.271Z,79.71
2022-10-15T07:47:26.838Z,79.81
2022-10-15T07:52:28.700Z,79.61
2022-10-15T07:57:30.758Z,79.80
2022-10-15T08:02:32.179Z,79.69
2022-10-15T08:07:33.646Z,79.66
2022-10-15T08:12:35.643Z,79.71
2022-10-15T08:17:37.341Z,79.70
2022-10-15T08:22:38.728Z,79.80
2022-10-15T08:27:40.273Z,79.91
2022-10-15T08:32:41.634Z,80.25
2022-10-15T08:37:43.009Z,80.23
2022-10-15T08:42:46.218Z,80.13
2022-10-15T08:47:56.200Z,79.64
2022-10-15T08:52:59.036Z,79.83
2022-10-15T08:58:07.946Z,79.67
2022-10-15T09:03:13.190Z,79.85
2022-10-15T09:08:45.041Z,79.59
2022-10-15T09:13:47.534Z,79.37
2022-10-15T09:18:52.332Z,79.12
2022-10-15T09:24:02.752Z,79.33
2022-10-15T09:29:23.844Z,79.26
2022-10-15T09:34:34.612Z,78.96
2022-10-15T09:39:43.423Z,78.83
2022-10-15T09:44:46.709Z,78.57
2022-10-15T09:49:48.204Z,78.48
2022-10-15T09:55:02.880Z,78.51
2022-10-15T10:00:08.913Z,77.96
2022-10-15T10:05:30.397Z,78.15
2022-10-15T10:10:32.313Z,78.28
2022-10-15T10:15:35.349Z,78.02
2022-10-15T10:20:52.381Z,77.19
2022-10-15T10:25:57.759Z,76.85
2022-10-15T10:31:03.678Z,76.47
2022-10-15T10:36:06.952Z,76.43
2022-10-15T10:41:10.852Z,75.33
2022-10-15T10:46:15.121Z,75.05
2022-10-15T10:51:24.172Z,74.95
2022-10-15T10:56:37.672Z,74.43
2022-10-15T11:01:39.184Z,74.69
2022-10-15T11:06:53.116Z,74.74
2022-10-15T11:12:00.041Z,74.74
2022-10-15T11:17:15.527Z,75.63
2022-10-15T11:22:35.740Z,75.57
2022-10-15T11:27:56.193Z,75.44
2022-10-15T11:33:08.579Z,75.49
2022-10-15T11:38:29.809Z,75.06
2022-10-15T11:43:56.316Z,75.10
2022-10-15T11:49:13.278Z,74.52
2022-10-15T11:54:35.099Z,74.15
2022-10-15T11:59:50.658Z,73.80
2022-10-15T12:04:55.890Z,73.50
2022-10-15T12:10:13.891Z,73.46
2022-10-15T12:15:35.130Z,73.51
2022-10-15T12:20:37.000Z,73.96
2022-10-15T12:25:41.506Z,74.31
2022-10-15T12:30:54.105Z,74.44
2022-10-15T12:36:01.052Z,74.93
2022-10-15T12:41:04.923Z,75.91
2022-10-15T12:46:08.662Z,76.38
2022-10-15T12:51:21.958Z,76.58
2022-10-15T12:56:25.796Z,76.46
2022-10-15T13:01:47.139Z,76.87
2022-10-15T13:06:48.729Z,77.08
2022-10-15T13:11:56.799Z,77.21
2022-10-15T13:16:59.516Z,77.34
2022-10-15T13:22:03.600Z,76.92
2022-10-15T13:27:15.372Z,77.49
2022-10-15T13:32:16.796Z,78.17
2022-10-15T13:37:29.424Z,78.62
2022-10-15T13:42:31.357Z,78.39
2022-10-15T13:47:38.017Z,78.17
2022-10-15T13:52:53.976Z,78.00
2022-10-15T13:58:20.318Z,78.15
2022-10-15T14:03:29.079Z,78.74
2022-10-15T14:08:35.557Z,78.86
2022-10-15T14:13:50.670Z,79.06
2022-10-15T14:18:56.939Z,78.99
2022-10-15T14:24:13.762Z,78.88
2022-10-15T14:29:35.445Z,78.71
2022-10-15T14:34:39.715Z,78.83
2022-10-15T14:39:41.304Z,78.65
2022-10-15T14:44:48.247Z,78.31
2022-10-15T14:49:57.899Z,79.28
2022-10-15T14:55:09.497Z,78.87
2022-10-15T15:00:29.202Z,78.57
2022-10-15T15:05:30.634Z,78.55
2022-10-15T15:10:31.968Z,78.12
2022-10-15T15:15:33.326Z,78.09
2022-10-15T15:20:34.702Z,77.97
2022-10-15T15:25:37.101Z,77.96
2022-10-15T15:30:42.592Z,77.94
2022-10-15T15:35:51.234Z,77.64
2022-10-15T15:40:52.688Z,77.83
2022-10-15T15:45:54.029Z,77.47
2022-10-15T15:51:01.614Z,77.45
2022-10-15T15:56:03.006Z,77.17
2022-10-15T16:01:04.422Z,77.27
2022-10-15T16:06:07.178Z,77.26
2022-10-15T16:11:08.613Z,77.42
2022-10-15T16:16:10.704Z,77.37
2022-10-15T16:21:12.046Z,77.32
2022-10-15T16:26:13.415Z,77.34
2022-10-15T16:31:20.558Z,77.50
2022-10-15T16:36:22.015Z,77.75
2022-10-15T16:41:23.372Z,77.51
2022-10-15T16:46:24.840Z,77.53
2022-10-15T16:51:26.727Z,77.27
2022-10-15T16:56:29.279Z,77.27
2022-10-15T17:01:30.768Z,77.17
2022-10-15T17:06:32.222Z,77.42
2022-10-15T17:11:36.365Z,77.47
2022-10-15T17:16:40.415Z,77.22
2022-10-15T17:21:42.632Z,77.66
2022-10-15T17:26:46.298Z,77.91
2022-10-15T17:31:48.674Z,78.05
2022-10-15T17:36:50.160Z,77.91
2022-10-15T17:41:52.140Z,78.75
2022-10-15T17:46:53.960Z,78.79
2022-10-15T17:51:55.337Z,79.60
2022-10-15T17:56:56.729Z,80.35
2022-10-15T18:02:00.728Z,81.10
2022-10-15T18:07:02.507Z,81.29
2022-10-15T18:12:04.064Z,81.29
2022-10-15T18:17:05.537Z,81.38
2022-10-15T18:22:06.896Z,81.30
2022-10-15T18:27:08.294Z,81.49
2022-10-15T18:32:09.683Z,81.21
2022-10-15T18:37:11.052Z,81.61
2022-10-15T18:42:12.399Z,81.53
2022-10-15T18:47:13.807Z,81.45
2022-10-15T18:52:22.036Z,81.90
2022-10-15T18:57:36.660Z,81.86
2022-10-15T19:02:38.270Z,81.72
2022-10-15T19:07:39.620Z,82.32
2022-10-15T19:12:41.119Z,82.03
2022-10-15T19:17:42.808Z,81.37
2022-10-15T19:22:45.299Z,81.50
2022-10-15T19:27:46.654Z,81.62
2022-10-15T19:32:48.018Z,81.06
2022-10-15T19:37:49.436Z,81.32
2022-10-15T19:42:50.763Z,81.14
2022-10-15T19:47:52.108Z,81.51
2022-10-15T19:52:53.440Z,81.33
2022-10-15T19:57:54.816Z,81.35
2022-10-15T20:02:56.444Z,81.33
2022-10-15T20:07:57.871Z,81.29
2022-10-15T20:12:59.217Z,81.23
2022-10-15T20:18:00.772Z,80.74
2022-10-15T20:23:02.598Z,81.16
2022-10-15T20:28:04.050Z,81.22
2022-10-15T20:33:06.618Z,81.22
2022-10-15T20:38:07.976Z,81.08
2022-10-15T20:43:09.436Z,81.15
2022-10-15T20:48:18.368Z,81.18
2022-10-15T20:53:21.676Z,81.54
2022-10-15T20:58:23.069Z,81.25
2022-10-15T21:03:25.253Z,81.35
2022-10-15T21:08:27.408Z,80.97
2022-10-15T21:13:28.934Z,80.87
2022-10-15T21:18:30.545Z,80.81
2022-10-15T21:23:32.481Z,80.66
2022-10-15T21:28:34.744Z,80.66
2022-10-15T21:33:36.167Z,80.91
2022-10-15T21:38:37.578Z,80.53
2022-10-15T21:43:39.010Z,80.39
2022-10-15T21:48:42.323Z,80.63
2022-10-15T21:53:43.842Z,80.45
2022-10-15T21:58:45.582Z,80.16
2022-10-15T22:03:48.115Z,79.98
2022-10-15T22:08:49.778Z,79.81
2022-10-15T22:13:53.905Z,80.32
2022-10-15T22:18:56.687Z,80.07
2022-10-15T22:24:04.048Z,80.08
2022-10-15T22:29:07.730Z,80.36
2022-10-15T22:34:09.182Z,80.19
2022-10-15T22:39:13.871Z,79.94
2022-10-15T22:44:17.900Z,80.12
2022-10-15T22:49:21.188Z,80.16
2022-10-15T22:54:23.176Z,80.18
2022-10-15T22:59:24.559Z,80.08
2022-10-15T23:04:25.926Z,80.37
2022-10-15T23:09:27.282Z,80.03
2022-10-15T23:14:28.699Z,80.42
2022-10-15T23:19:30.109Z,80.40
2022-10-15T23:24:31.724Z,80.08
2022-10-15T23:29:33.086Z,80.06
2022-10-15T23:34:34.479Z,80.05
2022-10-15T23:39:35.815Z,79.91
2022-10-15T23:49:43.537Z,79.80
2022-10-15T23:54:44.959Z,79.94
2022-10-15T23:59:46.344Z,79.92
